createdAt,value
2017-12-28T00:02:23.254Z,11.35
2017-12-28T00:04:50.835Z,10.20
2017-12-28T00:07:18.414Z,9.20
2017-12-28T00:09:46.729Z,12.30
2017-12-28T00:12:15.082Z,9.10
2017-12-28T00:14:42.605Z,11.02
2017-12-28T00:17:10.215Z,10.10
2017-12-28T00:19:37.736Z,11.18
2017-12-28T00:22:05.273Z,9.25
2017-12-28T00:24:32.830Z,8.13
2017-12-28T00:27:00.416Z,9.63
2017-12-28T00:29:27.979Z,9.63
2017-12-28T00:31:55.568Z,8.50
2017-12-28T00:34:23.088Z,11.98
2017-12-28T00:36:50.672Z,11.68
2017-12-28T00:39:18.169Z,13.85
2017-12-28T00:41:45.718Z,12.90
2017-12-28T00:44:13.242Z,11.90
2017-12-28T00:46:40.789Z,11.90
2017-12-28T00:49:08.317Z,9.75
2017-12-28T00:51:35.871Z,10.32
2017-12-28T00:54:03.394Z,11.43
2017-12-28T00:56:31.710Z,13.93
2017-12-28T00:58:59.245Z,12.25
2017-12-28T01:01:27.550Z,9.15
2017-12-28T01:03:55.069Z,8.85
2017-12-28T01:06:22.613Z,11.88
2017-12-28T01:08:50.136Z,15.38
2017-12-28T01:11:17.673Z,13.00
2017-12-28T01:13:45.956Z,12.25
2017-12-28T01:16:13.505Z,11.05
2017-12-28T01:18:41.799Z,12.82
2017-12-28T01:21:09.316Z,13.80
2017-12-28T01:23:36.859Z,13.73
2017-12-28T01:26:04.390Z,14.65
2017-12-28T01:28:31.928Z,13.00
2017-12-28T01:31:00.220Z,13.95
2017-12-28T01:33:27.761Z,15.00
2017-12-28T01:35:56.055Z,14.63
2017-12-28T01:38:23.609Z,13.73
2017-12-28T01:40:51.142Z,12.80
2017-12-28T01:43:18.679Z,14.52
2017-12-28T01:45:46.221Z,12.60
2017-12-28T01:48:13.760Z,12.75
2017-12-28T01:50:41.293Z,12.80
2017-12-28T01:53:08.837Z,13.57
2017-12-28T01:55:36.365Z,11.70
2017-12-28T01:58:03.902Z,13.02
2017-12-28T02:00:31.428Z,18.17
2017-12-28T02:02:58.976Z,13.88
2017-12-28T02:05:26.506Z,13.02
2017-12-28T02:07:54.041Z,11.30
2017-12-28T02:10:22.326Z,10.48
2017-12-28T02:12:49.869Z,10.35
2017-12-28T02:15:18.152Z,11.15
2017-12-28T02:17:46.456Z,9.40
2017-12-28T02:20:13.980Z,11.00
2017-12-28T02:22:41.517Z,9.50
2017-12-28T02:25:09.040Z,9.30
2017-12-28T02:27:36.594Z,10.35
2017-12-28T02:30:04.118Z,9.00
2017-12-28T02:32:31.671Z,8.90
2017-12-28T02:34:59.212Z,8.95
2017-12-28T02:37:26.762Z,9.00
2017-12-28T02:39:54.294Z,8.60
2017-12-28T02:42:21.821Z,8.90
2017-12-28T02:44:49.362Z,7.70
2017-12-28T02:47:16.880Z,7.80
2017-12-28T02:49:44.429Z,7.57
2017-12-28T02:52:12.722Z,7.78
2017-12-28T02:54:40.260Z,7.53
2017-12-28T02:57:08.547Z,7.60
2017-12-28T02:59:36.086Z,7.80
2017-12-28T03:02:04.373Z,8.07
2017-12-28T03:04:32.668Z,6.97
2017-12-28T03:07:00.196Z,6.95
2017-12-28T03:09:27.767Z,7.55
2017-12-28T03:11:55.310Z,7.18
2017-12-28T03:14:22.849Z,10.35
2017-12-28T03:16:50.370Z,7.82
2017-12-28T03:19:17.900Z,6.85
2017-12-28T03:21:46.191Z,7.15
2017-12-28T03:24:14.498Z,6.45
2017-12-28T03:26:42.017Z,6.10
2017-12-28T03:29:09.549Z,5.78
2017-12-28T03:31:37.075Z,5.72
2017-12-28T03:34:04.589Z,6.20
2017-12-28T03:36:32.126Z,6.53
2017-12-28T03:38:59.647Z,5.32
2017-12-28T03:41:27.181Z,7.10
2017-12-28T03:43:55.477Z,5.78
2017-12-28T03:46:23.016Z,5.35
2017-12-28T03:48:50.529Z,4.47
2017-12-28T03:51:18.075Z,4.65
2017-12-28T03:53:45.593Z,5.22
2017-12-28T03:56:13.129Z,4.22
2017-12-28T03:58:40.649Z,4.80
2017-12-28T04:01:08.189Z,4.57
2017-12-28T04:03:36.483Z,4.35
2017-12-28T04:06:04.021Z,3.47
2017-12-28T04:08:32.313Z,3.70
2017-12-28T04:11:00.617Z,3.80
2017-12-28T04:13:28.138Z,3.40
2017-12-28T04:15:56.449Z,3.40
2017-12-28T04:18:23.970Z,3.75
2017-12-28T04:20:51.517Z,3.80
2017-12-28T04:23:19.044Z,2.60
2017-12-28T04:25:46.584Z,3.22
2017-12-28T04:28:14.106Z,3.83
2017-12-28T04:30:41.655Z,3.37
2017-12-28T04:33:09.173Z,3.53
2017-12-28T04:35:36.711Z,3.50
2017-12-28T04:38:04.994Z,3.35
2017-12-28T04:40:32.533Z,3.75
2017-12-28T04:43:00.836Z,3.87
2017-12-28T04:45:28.377Z,4.30
2017-12-28T04:47:56.669Z,4.95
2017-12-28T04:50:24.205Z,3.90
2017-12-28T04:52:51.722Z,3.65
2017-12-28T04:55:19.261Z,2.83
2017-12-28T04:57:46.782Z,3.60
2017-12-28T05:00:14.322Z,3.45
2017-12-28T05:02:41.846Z,3.90
2017-12-28T05:05:09.382Z,3.80
2017-12-28T05:07:37.660Z,4.57
2017-12-28T05:10:05.965Z,3.90
2017-12-28T05:12:33.481Z,4.93
2017-12-28T05:15:01.005Z,4.65
2017-12-28T05:17:28.545Z,4.17
2017-12-28T05:19:56.064Z,4.10
2017-12-28T05:22:24.360Z,3.53
2017-12-28T05:24:52.642Z,4.43
2017-12-28T05:27:20.213Z,6.18
2017-12-28T05:29:47.731Z,5.47
2017-12-28T05:32:15.271Z,5.20
2017-12-28T05:34:42.793Z,5.90
2017-12-28T05:37:10.329Z,5.60
2017-12-28T05:39:38.613Z,6.05
2017-12-28T05:42:06.924Z,6.40
2017-12-28T05:44:34.444Z,5.47
2017-12-28T05:47:02.792Z,7.18
2017-12-28T05:49:30.321Z,7.15
2017-12-28T05:51:57.862Z,5.62
2017-12-28T05:54:25.377Z,6.05
2017-12-28T05:56:52.921Z,5.20
2017-12-28T05:59:20.436Z,4.32
2017-12-28T06:01:48.733Z,4.60
2017-12-28T06:04:16.253Z,3.50
2017-12-28T06:06:43.789Z,3.33
2017-12-28T06:09:11.327Z,3.00
2017-12-28T06:11:38.868Z,3.08
2017-12-28T06:14:06.384Z,2.30
2017-12-28T06:16:33.957Z,2.00
2017-12-28T06:19:01.475Z,2.40
2017-12-28T06:21:29.028Z,1.90
2017-12-28T06:23:56.553Z,1.83
2017-12-28T06:26:24.852Z,1.60
2017-12-28T06:28:52.374Z,1.58
2017-12-28T06:31:19.893Z,1.15
2017-12-28T06:33:47.433Z,2.00
2017-12-28T06:36:14.958Z,1.62
2017-12-28T06:38:42.501Z,1.95
2017-12-28T06:41:10.024Z,1.55
2017-12-28T06:43:37.560Z,1.50
2017-12-28T06:46:05.843Z,2.22
2017-12-28T06:48:34.147Z,1.15
2017-12-28T06:51:01.669Z,1.02
2017-12-28T06:53:29.976Z,1.27
2017-12-28T06:55:57.492Z,1.55
2017-12-28T06:58:25.030Z,2.00
2017-12-28T07:00:52.553Z,1.80
2017-12-28T07:03:20.090Z,1.40
2017-12-28T07:05:48.373Z,2.40
2017-12-28T07:08:16.674Z,1.65
2017-12-28T07:10:44.201Z,3.20
2017-12-28T07:13:12.521Z,7.45
2017-12-28T07:15:40.042Z,3.70
2017-12-28T07:18:08.325Z,3.70
2017-12-28T07:20:36.619Z,5.70
2017-12-28T07:23:04.164Z,2.80
2017-12-28T07:25:32.474Z,1.60
2017-12-28T07:27:59.994Z,2.00
2017-12-28T07:30:28.294Z,1.17
2017-12-28T07:32:55.809Z,2.42
2017-12-28T07:35:23.353Z,3.53
2017-12-28T07:37:50.874Z,1.25
2017-12-28T07:40:18.420Z,2.00
2017-12-28T07:42:46.706Z,2.10
2017-12-28T07:45:14.248Z,2.62
2017-12-28T07:47:42.540Z,4.28
2017-12-28T07:50:10.828Z,3.87
2017-12-28T07:52:38.370Z,1.92
2017-12-28T07:55:05.892Z,4.03
2017-12-28T07:57:33.430Z,2.22
2017-12-28T08:00:00.954Z,3.05
2017-12-28T08:02:29.258Z,7.47
2017-12-28T08:04:56.780Z,9.35
2017-12-28T08:07:24.320Z,9.35
2017-12-28T08:09:51.843Z,6.25
2017-12-28T08:12:19.402Z,8.25
2017-12-28T08:14:46.928Z,8.25
2017-12-28T08:17:15.233Z,6.32
2017-12-28T08:19:42.765Z,6.37
2017-12-28T08:22:11.045Z,4.10
2017-12-28T08:24:39.357Z,8.38
2017-12-28T08:27:06.881Z,9.75
2017-12-28T08:29:34.408Z,5.90
2017-12-28T08:32:01.977Z,11.43
2017-12-28T08:34:29.522Z,5.53
2017-12-28T08:36:57.053Z,4.77
2017-12-28T08:39:25.348Z,4.20
2017-12-28T08:41:52.871Z,6.07
2017-12-28T08:44:20.409Z,7.50
2017-12-28T08:46:47.931Z,8.27
2017-12-28T08:49:15.470Z,6.73
2017-12-28T08:51:42.996Z,7.62
2017-12-28T08:54:10.533Z,5.72
2017-12-28T08:56:38.053Z,3.45
2017-12-28T08:59:05.593Z,5.85
2017-12-28T09:01:33.117Z,5.40
2017-12-28T09:04:00.649Z,4.70
2017-12-28T09:06:28.171Z,5.65
2017-12-28T09:08:56.533Z,5.17
2017-12-28T09:11:24.051Z,3.53
2017-12-28T09:13:51.583Z,4.00
2017-12-28T09:16:20.738Z,4.93
2017-12-28T09:18:48.269Z,4.40
2017-12-28T09:21:15.794Z,5.33
2017-12-28T09:23:44.096Z,4.30
2017-12-28T09:26:11.674Z,5.20
2017-12-28T09:28:39.218Z,5.70
2017-12-28T09:31:06.736Z,3.60
2017-12-28T09:33:34.288Z,4.60
2017-12-28T09:36:01.792Z,3.33
2017-12-28T09:38:29.329Z,8.10
2017-12-28T09:40:57.617Z,8.00
2017-12-28T09:43:25.897Z,4.93
2017-12-28T09:45:54.198Z,4.23
2017-12-28T09:48:21.719Z,4.63
2017-12-28T09:50:50.038Z,7.90
2017-12-28T09:53:17.558Z,6.77
2017-12-28T09:55:45.866Z,4.90
2017-12-28T09:58:13.381Z,4.73
2017-12-28T10:00:40.933Z,3.97
2017-12-28T10:03:08.456Z,5.00
2017-12-28T10:05:36.009Z,4.87
2017-12-28T10:08:03.549Z,4.65
2017-12-28T10:10:31.857Z,5.33
2017-12-28T10:12:59.379Z,5.90
2017-12-28T10:15:27.687Z,4.97
2017-12-28T10:17:55.217Z,5.37
2017-12-28T10:20:22.746Z,5.63
2017-12-28T10:22:50.261Z,5.53
2017-12-28T10:25:17.804Z,5.78
2017-12-28T10:27:46.098Z,5.87
2017-12-28T10:30:13.638Z,6.10
2017-12-28T10:32:41.928Z,5.57
2017-12-28T10:35:10.231Z,5.57
2017-12-28T10:37:37.749Z,4.60
2017-12-28T10:40:06.056Z,4.70
2017-12-28T10:42:33.565Z,4.77
2017-12-28T10:45:01.105Z,5.20
2017-12-28T10:47:28.625Z,4.40
2017-12-28T10:49:56.159Z,4.93
2017-12-28T10:52:23.701Z,4.97
2017-12-28T10:54:51.218Z,3.40
2017-12-28T10:57:18.750Z,4.73
2017-12-28T10:59:47.039Z,5.50
2017-12-28T11:02:15.413Z,4.93
2017-12-28T11:04:42.957Z,4.53
2017-12-28T11:07:10.493Z,4.03
2017-12-28T11:09:38.014Z,4.47
2017-12-28T11:12:05.558Z,4.07
2017-12-28T11:14:33.082Z,4.83
2017-12-28T11:17:00.614Z,5.50
2017-12-28T11:19:28.901Z,5.97
2017-12-28T11:21:56.435Z,5.47
2017-12-28T11:24:23.956Z,6.55
2017-12-28T11:26:52.266Z,5.60
2017-12-28T11:29:19.786Z,7.63
2017-12-28T11:31:47.319Z,4.20
2017-12-28T11:34:14.828Z,4.23
2017-12-28T11:36:43.106Z,5.30
2017-12-28T11:39:11.419Z,5.07
2017-12-28T11:41:38.933Z,6.33
2017-12-28T11:44:07.243Z,3.87
2017-12-28T11:46:34.753Z,4.97
2017-12-28T11:49:02.291Z,5.20
2017-12-28T11:51:35.417Z,6.75
2017-12-28T11:54:02.949Z,8.50
2017-12-28T11:56:36.130Z,7.93
2017-12-28T11:59:03.669Z,9.77
2017-12-28T12:01:36.924Z,6.20
2017-12-28T12:04:09.347Z,7.63
2017-12-28T12:06:42.628Z,4.60
2017-12-28T12:09:16.586Z,5.93
2017-12-28T12:11:44.115Z,4.40
2017-12-28T12:14:11.655Z,7.60
2017-12-28T12:16:39.178Z,7.10
2017-12-28T12:19:06.719Z,5.10
2017-12-28T12:21:34.225Z,4.90
2017-12-28T12:24:02.532Z,4.50
2017-12-28T12:26:30.049Z,5.70
2017-12-28T12:28:57.585Z,6.70
2017-12-28T12:31:25.097Z,5.03
2017-12-28T12:33:52.633Z,5.80
2017-12-28T12:36:20.373Z,4.60
2017-12-28T12:38:49.234Z,6.30
2017-12-28T12:41:16.841Z,5.30
2017-12-28T12:43:44.373Z,4.70
2017-12-28T12:46:11.886Z,4.87
2017-12-28T12:48:40.201Z,5.50
2017-12-28T12:51:07.725Z,6.68
2017-12-28T12:53:35.249Z,12.93
2017-12-28T12:56:02.801Z,11.07
2017-12-28T12:58:30.326Z,9.10
2017-12-28T13:00:57.869Z,4.57
2017-12-28T13:03:25.394Z,5.30
2017-12-28T13:05:52.934Z,7.63
2017-12-28T13:08:20.469Z,6.18
2017-12-28T13:10:48.012Z,9.20
2017-12-28T13:13:15.544Z,7.05
2017-12-28T13:15:43.848Z,8.05
2017-12-28T13:18:11.381Z,8.95
2017-12-28T13:20:39.700Z,6.57
2017-12-28T13:23:07.226Z,8.38
2017-12-28T13:25:35.533Z,7.93
2017-12-28T13:28:03.054Z,6.10
2017-12-28T13:30:31.389Z,4.82
2017-12-28T13:32:58.905Z,4.97
2017-12-28T13:35:27.205Z,4.90
2017-12-28T13:37:54.733Z,3.92
2017-12-28T13:40:22.278Z,3.70
2017-12-28T13:42:49.809Z,4.47
2017-12-28T13:45:17.345Z,4.87
2017-12-28T13:47:44.866Z,4.55
2017-12-28T13:50:12.408Z,3.70
2017-12-28T13:52:39.932Z,4.20
2017-12-28T13:55:07.472Z,5.70
2017-12-28T13:57:35.757Z,4.00
2017-12-28T14:00:04.063Z,4.82
2017-12-28T14:02:31.573Z,3.90
2017-12-28T14:04:59.113Z,4.20
2017-12-28T14:07:26.631Z,3.17
2017-12-28T14:09:55.047Z,2.87
2017-12-28T14:12:22.777Z,4.15
2017-12-28T14:14:50.325Z,2.90
2017-12-28T14:17:17.918Z,4.17
2017-12-28T14:19:46.404Z,4.68
2017-12-28T14:22:13.942Z,3.78
2017-12-28T14:24:41.456Z,4.00
2017-12-28T14:27:08.993Z,3.60
2017-12-28T14:29:36.517Z,3.85
2017-12-28T14:32:04.060Z,3.10
2017-12-28T14:34:31.585Z,4.00
2017-12-28T14:36:59.121Z,3.00
2017-12-28T14:39:26.638Z,4.20
2017-12-28T14:41:54.954Z,3.25
2017-12-28T14:44:22.475Z,2.42
2017-12-28T14:46:50.017Z,6.62
2017-12-28T14:49:17.539Z,8.25
2017-12-28T14:51:45.086Z,5.85
2017-12-28T14:54:12.604Z,4.85
2017-12-28T14:56:40.948Z,3.42
2017-12-28T14:59:08.489Z,4.15
2017-12-28T15:01:36.014Z,3.85
2017-12-28T15:04:03.549Z,3.37
2017-12-28T15:06:31.064Z,4.20
2017-12-28T15:08:58.602Z,3.78
2017-12-28T15:11:26.130Z,3.97
2017-12-28T15:13:53.669Z,3.50
2017-12-28T15:16:21.193Z,4.28
2017-12-28T15:18:48.737Z,4.10
2017-12-28T15:21:16.253Z,4.60
2017-12-28T15:23:44.073Z,4.05
2017-12-28T15:26:11.586Z,4.22
2017-12-28T15:28:39.121Z,7.55
2017-12-28T15:31:06.647Z,6.15
2017-12-28T15:33:34.190Z,5.55
2017-12-28T15:36:02.473Z,5.47
2017-12-28T15:38:30.781Z,5.60
2017-12-28T15:40:58.329Z,6.28
2017-12-28T15:43:25.905Z,5.15
2017-12-28T15:45:53.422Z,4.47
2017-12-28T15:48:21.766Z,5.65
2017-12-28T15:50:49.277Z,5.28
2017-12-28T15:53:17.582Z,4.85
2017-12-28T15:55:45.094Z,3.70
2017-12-28T15:58:12.646Z,4.25
2017-12-28T16:00:40.157Z,4.80
2017-12-28T16:03:07.698Z,7.00
2017-12-28T16:05:35.981Z,4.05
2017-12-28T16:08:04.284Z,4.05
2017-12-28T16:10:31.801Z,5.40
2017-12-28T16:12:59.351Z,4.60
2017-12-28T16:15:26.921Z,4.40
2017-12-28T16:17:54.488Z,7.00
2017-12-28T16:20:22.064Z,7.18
2017-12-28T16:22:50.342Z,4.43
2017-12-28T16:25:18.691Z,4.40
2017-12-28T16:27:46.213Z,5.00
2017-12-28T16:30:13.744Z,3.78
2017-12-28T16:32:42.070Z,4.40
2017-12-28T16:35:09.648Z,3.05
2017-12-28T16:37:37.204Z,3.58
2017-12-28T16:40:04.737Z,4.22
2017-12-28T16:42:32.300Z,4.50
2017-12-28T16:44:59.882Z,3.80
2017-12-28T16:47:27.401Z,6.72
2017-12-28T16:49:54.936Z,5.18
2017-12-28T16:52:22.490Z,6.72
2017-12-28T16:54:50.012Z,3.55
2017-12-28T16:57:17.549Z,6.57
2017-12-28T16:59:45.069Z,9.50
2017-12-28T17:02:12.606Z,7.80
2017-12-28T17:04:40.163Z,7.37
2017-12-28T17:07:07.698Z,7.32
2017-12-28T17:09:35.215Z,4.32
2017-12-28T17:12:03.572Z,3.40
2017-12-28T17:14:31.136Z,5.50
2017-12-28T17:16:58.714Z,4.57
2017-12-28T17:19:26.271Z,3.35
2017-12-28T17:21:53.808Z,5.50
2017-12-28T17:24:21.366Z,3.33
2017-12-28T17:26:48.940Z,3.08
2017-12-28T17:29:16.458Z,4.45
2017-12-28T17:31:44.056Z,3.28
2017-12-28T17:34:11.614Z,4.80
2017-12-28T17:36:39.128Z,3.95
2017-12-28T17:39:06.664Z,3.83
2017-12-28T17:41:34.220Z,4.82
2017-12-28T17:44:02.531Z,3.87
2017-12-28T17:46:30.050Z,4.30
2017-12-28T17:48:57.581Z,4.05
2017-12-28T17:51:25.149Z,5.05
2017-12-28T17:53:52.721Z,4.07
2017-12-28T17:56:20.272Z,3.03
2017-12-28T17:58:47.852Z,3.22
2017-12-28T18:01:15.398Z,3.37
2017-12-28T18:03:42.977Z,3.70
2017-12-28T18:06:11.365Z,3.03
2017-12-28T18:08:39.652Z,4.12
2017-12-28T18:11:07.237Z,6.07
2017-12-28T18:13:34.806Z,3.55
2017-12-28T18:16:02.379Z,3.20
2017-12-28T18:18:29.893Z,3.53
2017-12-28T18:20:59.033Z,3.55
2017-12-28T18:23:26.549Z,3.20
2017-12-28T18:25:54.989Z,2.90
2017-12-28T18:28:22.557Z,3.35
2017-12-28T18:30:50.166Z,2.17
2017-12-28T18:33:17.719Z,3.05
2017-12-28T18:35:46.071Z,2.80
2017-12-28T18:38:13.581Z,2.55
2017-12-28T18:40:41.147Z,3.40
2017-12-28T18:43:09.834Z,3.10
2017-12-28T18:45:37.421Z,3.05
2017-12-28T18:48:04.980Z,2.72
2017-12-28T18:50:32.566Z,3.35
2017-12-28T18:53:00.160Z,2.60
2017-12-28T18:55:27.732Z,2.80
2017-12-28T18:57:55.325Z,3.53
2017-12-28T19:00:22.885Z,3.35
2017-12-28T19:02:50.414Z,4.82
2017-12-28T19:05:17.925Z,5.05
2017-12-28T19:07:45.539Z,2.95
2017-12-28T19:10:13.100Z,5.62
2017-12-28T19:12:40.675Z,3.60
2017-12-28T19:15:08.234Z,4.70
2017-12-28T19:17:35.830Z,3.95
2017-12-28T19:20:03.342Z,3.80
2017-12-28T19:22:30.925Z,3.22
2017-12-28T19:24:58.476Z,3.37
2017-12-28T19:27:26.052Z,3.10
2017-12-28T19:29:53.621Z,2.90
2017-12-28T19:32:21.145Z,2.58
2017-12-28T19:34:48.709Z,2.65
2017-12-28T19:37:16.292Z,3.75
2017-12-28T19:39:43.851Z,3.22
2017-12-28T19:42:12.605Z,3.03
2017-12-28T19:44:40.169Z,4.05
2017-12-28T19:47:07.732Z,3.55
2017-12-28T19:49:35.301Z,3.10
2017-12-28T19:52:02.860Z,3.28
2017-12-28T19:54:30.461Z,3.22
2017-12-28T19:56:58.016Z,3.12
2017-12-28T19:59:25.583Z,2.72
2017-12-28T20:01:53.944Z,2.87
2017-12-28T20:04:21.524Z,3.30
2017-12-28T20:06:49.137Z,2.85
2017-12-28T20:09:16.713Z,3.20
2017-12-28T20:11:44.277Z,4.45
2017-12-28T20:14:11.806Z,3.62
2017-12-28T20:16:40.193Z,3.10
2017-12-28T20:19:08.547Z,3.47
2017-12-28T20:21:36.112Z,4.05
2017-12-28T20:24:03.698Z,3.10
2017-12-28T20:26:31.256Z,4.22
2017-12-28T20:28:59.609Z,4.70
2017-12-28T20:31:27.176Z,3.95
2017-12-28T20:33:54.762Z,3.87
2017-12-28T20:36:22.330Z,3.17
2017-12-28T20:38:49.921Z,3.55
2017-12-28T20:41:17.488Z,3.30
2017-12-28T20:43:45.077Z,4.03
2017-12-28T20:46:12.645Z,3.65
2017-12-28T20:48:40.233Z,2.53
2017-12-28T20:51:07.795Z,3.62
2017-12-28T20:53:35.388Z,4.90
2017-12-28T20:56:02.958Z,5.95
2017-12-28T20:58:30.541Z,2.45
2017-12-28T21:00:58.107Z,4.20
2017-12-28T21:03:25.698Z,3.00
2017-12-28T21:05:54.030Z,3.45
2017-12-28T21:08:21.614Z,3.45
2017-12-28T21:10:49.185Z,6.95
2017-12-28T21:13:17.532Z,3.80
2017-12-28T21:15:45.104Z,5.30
2017-12-28T21:18:12.688Z,3.50
2017-12-28T21:20:41.017Z,4.12
2017-12-28T21:23:08.609Z,3.83
2017-12-28T21:25:36.176Z,3.15
2017-12-28T21:28:04.589Z,3.90
2017-12-28T21:30:32.928Z,3.80
2017-12-28T21:33:00.520Z,3.45
2017-12-28T21:35:28.864Z,2.87
2017-12-28T21:37:56.461Z,11.35
2017-12-28T21:40:24.795Z,3.72
2017-12-28T21:42:52.385Z,3.35
2017-12-28T21:45:19.949Z,2.95
2017-12-28T21:47:47.534Z,2.55
2017-12-28T21:50:15.096Z,5.07
2017-12-28T21:52:42.744Z,4.43
2017-12-28T21:55:11.064Z,2.60
2017-12-28T21:57:38.637Z,2.62
2017-12-28T22:00:06.208Z,2.55
2017-12-28T22:02:33.759Z,2.67
2017-12-28T22:05:01.345Z,2.50
2017-12-28T22:07:28.910Z,2.67
2017-12-28T22:09:56.492Z,2.55
2017-12-28T22:12:24.825Z,2.17
2017-12-28T22:14:53.181Z,2.17
2017-12-28T22:17:20.745Z,3.03
2017-12-28T22:19:48.333Z,2.65
2017-12-28T22:22:15.901Z,3.60
2017-12-28T22:24:43.488Z,2.62
2017-12-28T22:27:11.820Z,2.33
2017-12-28T22:29:39.405Z,2.75
2017-12-28T22:32:06.968Z,2.33
2017-12-28T22:34:34.610Z,2.67
2017-12-28T22:37:02.184Z,2.65
2017-12-28T22:39:29.768Z,2.50
2017-12-28T22:41:57.337Z,2.70
2017-12-28T22:44:25.691Z,2.50
2017-12-28T22:46:53.256Z,2.70
2017-12-28T22:49:21.599Z,2.75
2017-12-28T22:51:49.160Z,2.92
2017-12-28T22:54:16.744Z,2.80
2017-12-28T22:56:44.316Z,2.45
2017-12-28T22:59:11.901Z,3.60
2017-12-28T23:01:40.232Z,2.90
2017-12-28T23:04:07.817Z,3.42
2017-12-28T23:06:35.384Z,3.22
2017-12-28T23:09:02.962Z,2.87
2017-12-28T23:11:30.528Z,2.55
2017-12-28T23:13:58.876Z,3.25
2017-12-28T23:16:26.443Z,2.30
2017-12-28T23:18:54.029Z,3.87
2017-12-28T23:21:22.351Z,2.95
2017-12-28T23:23:49.936Z,3.25
2017-12-28T23:26:17.501Z,3.12
2017-12-28T23:28:45.097Z,3.40
2017-12-28T23:31:13.437Z,3.33
2017-12-28T23:33:41.028Z,3.20
2017-12-28T23:36:09.353Z,3.53
2017-12-28T23:38:36.927Z,2.90
2017-12-28T23:41:04.487Z,3.08
2017-12-28T23:43:32.071Z,3.30
2017-12-28T23:45:59.632Z,3.20
2017-12-28T23:48:27.219Z,3.25
2017-12-28T23:50:55.544Z,2.85
2017-12-28T23:53:23.110Z,2.90
2017-12-28T23:55:50.675Z,3.08
2017-12-28T23:58:18.251Z,4.25
